createdAt,value
2019-04-07T00:02:14.446Z,91933.01
2019-04-07T00:04:42.996Z,91934.94
2019-04-07T00:07:12.071Z,91940.73
2019-04-07T00:09:40.355Z,91939.75
2019-04-07T00:12:08.655Z,91937.38
2019-04-07T00:14:36.914Z,91931.74
2019-04-07T00:17:05.712Z,91926.77
2019-04-07T00:19:34.047Z,91932.56
2019-04-07T00:22:02.313Z,91940.04
2019-04-07T00:24:30.598Z,91941.70
2019-04-07T00:26:58.857Z,91946.38
2019-04-07T00:29:27.711Z,91942.98
2019-04-07T00:31:56.144Z,91943.56
2019-04-07T00:34:24.783Z,91942.78
2019-04-07T00:36:53.641Z,91951.48
2019-04-07T00:39:22.413Z,91955.63
2019-04-07T00:41:50.820Z,91952.45
2019-04-07T00:44:19.120Z,91954.37
2019-04-07T00:46:47.656Z,91948.27
2019-04-07T00:49:16.138Z,91953.58
2019-04-07T00:51:44.411Z,91949.66
2019-04-07T00:54:12.699Z,91950.69
2019-04-07T00:56:41.185Z,91950.82
2019-04-07T00:59:09.972Z,91956.31
2019-04-07T01:01:38.318Z,91953.88
2019-04-07T01:04:06.599Z,91954.33
2019-04-07T01:06:34.850Z,91953.41
2019-04-07T01:09:03.305Z,91956.17
2019-04-07T01:11:32.090Z,91958.29
2019-04-07T01:14:00.648Z,91966.15
2019-04-07T01:16:29.410Z,91968.48
2019-04-07T01:18:58.307Z,91961.44
2019-04-07T01:21:26.561Z,91961.16
2019-04-07T01:23:54.858Z,91966.38
2019-04-07T01:26:23.120Z,91968.70
2019-04-07T01:28:53.689Z,91966.34
2019-04-07T01:31:22.467Z,91966.10
2019-04-07T01:33:50.827Z,91967.16
2019-04-07T01:36:19.082Z,91967.92
2019-04-07T01:38:47.471Z,91967.41
2019-04-07T01:41:34.059Z,91957.71
2019-04-07T01:44:07.136Z,91958.21
2019-04-07T01:46:43.210Z,91963.66
2019-04-07T01:49:13.494Z,91955.45
2019-04-07T01:51:43.375Z,91950.50
2019-04-07T01:54:25.692Z,91950.86
2019-04-07T01:57:07.885Z,91950.75
2019-04-07T01:59:40.845Z,91949.78
2019-04-07T02:02:26.863Z,91959.04
2019-04-07T02:05:13.413Z,91961.17
2019-04-07T02:07:43.651Z,91959.64
2019-04-07T02:10:22.526Z,91963.45
2019-04-07T02:12:53.101Z,91950.66
2019-04-07T02:15:25.997Z,91956.62
2019-04-07T02:18:02.618Z,91953.55
2019-04-07T02:20:53.033Z,91951.25
2019-04-07T02:23:39.375Z,91961.02
2019-04-07T02:26:09.318Z,91963.28
2019-04-07T02:28:48.388Z,91967.02
2019-04-07T02:31:19.149Z,91971.70
2019-04-07T02:34:05.600Z,91965.95
2019-04-07T02:36:51.959Z,91966.20
2019-04-07T02:39:34.669Z,91967.02
2019-04-07T02:42:08.727Z,91963.55
2019-04-07T02:44:48.276Z,91966.03
2019-04-07T02:47:21.350Z,91968.73
2019-04-07T02:50:07.879Z,91969.81
2019-04-07T02:52:43.556Z,91968.66
2019-04-07T02:55:14.379Z,91976.45
2019-04-07T02:57:52.899Z,91976.27
2019-04-07T03:00:25.487Z,91981.88
2019-04-07T03:02:58.124Z,91980.84
2019-04-07T03:05:40.434Z,91991.11
2019-04-07T03:08:17.221Z,91991.88
2019-04-07T03:10:50.078Z,91995.52
2019-04-07T03:13:21.048Z,91994.41
2019-04-07T03:15:54.590Z,91990.57
2019-04-07T03:18:30.137Z,91992.25
2019-04-07T03:21:19.649Z,91992.58
2019-04-07T03:23:52.972Z,91996.22
2019-04-07T03:26:42.460Z,91998.34
2019-04-07T03:29:16.081Z,92000.78
2019-04-07T03:32:02.936Z,92000.23
2019-04-07T03:34:35.685Z,92001.89
2019-04-07T03:37:26.235Z,92005.34
2019-04-07T03:39:40.971Z,91999.66
2019-04-07T03:44:54.930Z,91993.84
2019-04-07T03:47:25.938Z,91993.02
2019-04-07T03:49:59.709Z,91996.11
2019-04-07T03:52:35.595Z,91984.11
2019-04-07T03:55:22.823Z,91986.52
2019-04-07T03:58:01.726Z,91986.72
2019-04-07T04:00:58.974Z,91990.28
2019-04-07T04:03:41.013Z,91989.09
2019-04-07T04:06:30.153Z,91989.95
2019-04-07T04:11:51.913Z,91995.16
2019-04-07T04:14:22.065Z,91997.41
2019-04-07T04:16:51.951Z,91995.03
2019-04-07T04:19:20.870Z,91997.82
2019-04-07T04:21:49.186Z,91990.78
2019-04-07T04:24:18.228Z,91990.05
2019-04-07T04:26:47.541Z,91995.23
2019-04-07T04:29:16.839Z,91994.52
2019-04-07T04:31:45.913Z,91996.88
2019-04-07T04:34:15.136Z,92000.54
2019-04-07T04:36:43.463Z,92000.59
2019-04-07T04:39:12.955Z,91997.98
2019-04-07T04:41:42.604Z,91992.30
2019-04-07T04:44:11.177Z,92000.36
2019-04-07T04:46:39.417Z,92001.12
2019-04-07T04:49:07.816Z,91997.16
2019-04-07T04:51:39.270Z,92000.28
2019-04-07T04:54:07.006Z,92009.85
2019-04-07T04:56:36.146Z,92012.58
2019-04-07T04:59:04.594Z,92017.80
2019-04-07T05:01:33.116Z,92023.61
2019-04-07T05:04:01.433Z,92023.02
2019-04-07T05:06:29.738Z,92030.72
2019-04-07T05:08:58.128Z,92025.50
2019-04-07T05:11:26.486Z,92035.35
2019-04-07T05:13:54.775Z,92035.71
2019-04-07T05:16:23.137Z,92043.23
2019-04-07T05:18:51.863Z,92047.86
2019-04-07T05:21:20.714Z,92051.97
2019-04-07T05:23:48.987Z,92049.35
2019-04-07T05:26:17.258Z,92057.90
2019-04-07T05:28:45.940Z,92059.92
2019-04-07T05:31:14.507Z,92061.82
2019-04-07T05:33:43.261Z,92061.58
2019-04-07T05:36:12.201Z,92064.67
2019-04-07T05:38:41.011Z,92062.51
2019-04-07T05:41:10.740Z,92062.82
2019-04-07T05:43:39.180Z,92061.08
2019-04-07T05:46:08.313Z,92063.45
2019-04-07T05:48:37.287Z,92062.98
2019-04-07T05:51:05.582Z,92065.00
2019-04-07T05:53:34.476Z,92064.05
2019-04-07T05:56:03.157Z,92063.22
2019-04-07T05:58:31.442Z,92057.88
2019-04-07T06:01:00.255Z,92062.80
2019-04-07T06:03:28.578Z,92058.48
2019-04-07T06:05:57.211Z,92066.66
2019-04-07T06:08:32.654Z,92068.20
2019-04-07T06:11:00.025Z,92069.63
2019-04-07T06:13:25.575Z,92061.28
2019-04-07T06:15:54.070Z,92061.28
2019-04-07T06:18:22.878Z,92081.19
2019-04-07T06:20:52.025Z,92086.58
2019-04-07T06:23:24.270Z,92086.58
2019-04-07T06:25:51.052Z,92087.53
2019-04-07T06:28:19.419Z,92089.74
2019-04-07T06:30:48.337Z,92086.58
2019-04-07T06:33:17.491Z,92090.73
2019-04-07T06:35:47.368Z,92087.21
2019-04-07T06:38:16.628Z,92085.14
2019-04-07T06:40:45.062Z,92087.86
2019-04-07T06:43:14.562Z,92086.36
2019-04-07T06:45:45.291Z,92089.19
2019-04-07T06:48:14.396Z,92087.17
2019-04-07T06:50:58.340Z,92088.63
2019-04-07T06:53:31.270Z,92086.14
2019-04-07T06:56:05.026Z,92092.44
2019-04-07T06:58:41.132Z,92083.77
2019-04-07T07:01:11.114Z,92086.23
2019-04-07T07:03:57.594Z,92088.58
2019-04-07T07:06:28.464Z,92088.81
2019-04-07T07:09:02.036Z,92085.49
2019-04-07T07:11:34.382Z,92089.72
2019-04-07T07:14:12.373Z,92087.75
2019-04-07T07:16:43.790Z,92088.64
2019-04-07T07:22:15.851Z,92090.89
2019-04-07T07:24:45.903Z,92092.66
2019-04-07T07:27:12.980Z,92095.14
2019-04-07T07:29:45.410Z,92099.22
2019-04-07T07:32:11.580Z,92104.63
2019-04-07T07:34:42.236Z,92098.61
2019-04-07T07:37:10.618Z,92103.47
2019-04-07T07:39:41.857Z,92109.73
2019-04-07T07:42:09.395Z,92108.09
2019-04-07T07:44:39.608Z,92106.03
2019-04-07T07:47:07.988Z,92104.34
2019-04-07T07:49:40.081Z,92104.95
2019-04-07T07:52:06.250Z,92103.03
2019-04-07T07:54:35.229Z,92109.34
2019-04-07T07:57:03.569Z,92107.57
2019-04-07T07:59:37.779Z,92106.63
2019-04-07T08:02:02.444Z,92106.19
2019-04-07T08:04:30.809Z,92112.56
2019-04-07T08:06:59.084Z,92113.73
2019-04-07T08:09:28.238Z,92116.52
2019-04-07T08:11:56.603Z,92122.19
2019-04-07T08:14:29.339Z,92124.30
2019-04-07T08:17:00.211Z,92124.53
2019-04-07T08:19:29.655Z,92125.22
2019-04-07T08:21:58.415Z,92126.98
2019-04-07T08:24:27.254Z,92122.54
2019-04-07T08:26:57.121Z,92124.38
2019-04-07T08:29:25.795Z,92123.08
2019-04-07T08:31:55.393Z,92128.34
2019-04-07T08:34:23.239Z,92138.25
2019-04-07T08:36:51.961Z,92135.02
2019-04-07T08:39:25.191Z,92133.66
2019-04-07T08:41:50.704Z,92135.70
2019-04-07T08:44:19.018Z,92132.87
2019-04-07T08:46:47.355Z,92128.14
2019-04-07T08:49:15.612Z,92130.84
2019-04-07T08:51:43.938Z,92126.73
2019-04-07T08:54:15.730Z,92137.51
2019-04-07T08:56:42.376Z,92138.37
2019-04-07T08:59:12.967Z,92130.89
2019-04-07T09:01:40.673Z,92129.86
2019-04-07T09:04:09.457Z,92142.59
2019-04-07T09:06:38.525Z,92133.88
2019-04-07T09:09:08.094Z,92141.14
2019-04-07T09:11:39.104Z,92141.91
2019-04-07T09:14:07.981Z,92142.41
2019-04-07T09:16:41.630Z,92131.67
2019-04-07T09:19:14.943Z,92139.86
2019-04-07T09:21:50.141Z,92139.22
2019-04-07T09:24:19.063Z,92132.54
2019-04-07T09:26:52.417Z,92124.12
2019-04-07T09:29:24.970Z,92130.95
2019-04-07T09:31:57.570Z,92129.38
2019-04-07T09:34:33.549Z,92126.52
2019-04-07T09:37:06.909Z,92123.92
2019-04-07T09:39:58.509Z,92119.14
2019-04-07T09:42:26.785Z,92122.05
2019-04-07T09:44:57.410Z,92124.15
2019-04-07T09:47:27.411Z,92117.51
2019-04-07T09:50:00.475Z,92121.48
2019-04-07T09:52:37.041Z,92118.66
2019-04-07T09:55:16.885Z,92123.36
2019-04-07T09:58:02.242Z,92124.24
2019-04-07T10:00:50.205Z,92123.06
2019-04-07T10:03:19.948Z,92117.36
2019-04-07T10:05:52.943Z,92121.59
2019-04-07T10:08:26.080Z,92121.23
2019-04-07T10:10:59.424Z,92123.81
2019-04-07T10:13:29.648Z,92120.73
2019-04-07T10:16:15.516Z,92122.73
2019-04-07T10:18:57.747Z,92128.20
2019-04-07T10:21:39.769Z,92125.13
2019-04-07T10:24:13.004Z,92119.40
2019-04-07T10:26:45.670Z,92116.08
2019-04-07T10:29:31.908Z,92116.30
2019-04-07T10:32:07.838Z,92115.27
2019-04-07T10:34:38.660Z,92115.53
2019-04-07T10:37:14.653Z,92115.38
2019-04-07T10:39:48.389Z,92107.70
2019-04-07T10:42:21.901Z,92110.05
2019-04-07T10:45:03.788Z,92107.99
2019-04-07T10:47:33.746Z,92113.30
2019-04-07T10:50:18.319Z,92108.73
2019-04-07T10:53:03.773Z,92112.19
2019-04-07T10:55:45.669Z,92105.22
2019-04-07T10:58:18.020Z,92103.96
2019-04-07T11:00:50.778Z,92097.36
2019-04-07T11:03:23.007Z,92099.85
2019-04-07T11:05:59.345Z,92099.38
2019-04-07T11:08:45.465Z,92101.99
2019-04-07T11:11:33.387Z,92097.39
2019-04-07T11:14:12.069Z,92102.65
2019-04-07T11:16:45.213Z,92105.63
2019-04-07T11:19:32.196Z,92099.75
2019-04-07T11:22:09.050Z,92095.89
2019-04-07T11:24:41.769Z,92092.36
2019-04-07T11:27:14.788Z,92093.81
2019-04-07T11:29:53.926Z,92090.86
2019-04-07T11:32:28.240Z,92093.38
2019-04-07T11:35:01.561Z,92092.47
2019-04-07T11:37:47.278Z,92084.70
2019-04-07T11:40:20.961Z,92085.42
2019-04-07T11:42:51.017Z,92082.86
2019-04-07T11:45:23.731Z,92087.64
2019-04-07T11:47:54.440Z,92085.04
2019-04-07T11:50:24.414Z,92090.30
2019-04-07T11:52:57.307Z,92087.28
2019-04-07T11:55:44.265Z,92094.78
2019-04-07T11:58:23.021Z,92088.55
2019-04-07T12:00:57.208Z,92096.98
2019-04-07T12:03:35.856Z,92097.70
2019-04-07T12:06:08.664Z,92091.67
2019-04-07T12:08:54.684Z,92091.74
2019-04-07T12:11:31.053Z,92091.74
2019-04-07T12:16:55.042Z,92099.56
2019-04-07T12:19:26.177Z,92092.75
2019-04-07T12:22:14.136Z,92098.08
2019-04-07T12:24:50.195Z,92095.78
2019-04-07T12:27:26.989Z,92089.81
2019-04-07T12:29:57.016Z,92091.91
2019-04-07T12:32:35.967Z,92092.14
2019-04-07T12:35:07.402Z,92086.77
2019-04-07T12:37:49.136Z,92088.80
2019-04-07T12:40:22.892Z,92100.29
2019-04-07T12:43:02.509Z,92094.27
2019-04-07T12:45:33.665Z,92089.52
2019-04-07T12:48:19.877Z,92086.23
2019-04-07T12:50:50.920Z,92086.14
2019-04-07T12:53:25.143Z,92093.05
2019-04-07T12:56:09.999Z,92089.13
2019-04-07T12:58:44.071Z,92091.92
2019-04-07T13:01:17.658Z,92098.66
2019-04-07T13:03:52.526Z,92092.17
2019-04-07T13:06:29.088Z,92097.16
2019-04-07T13:09:01.538Z,92094.18
2019-04-07T13:11:49.673Z,92096.45
2019-04-07T13:14:25.664Z,92092.66
2019-04-07T13:17:12.621Z,92088.55
2019-04-07T13:19:46.707Z,92084.06
2019-04-07T13:22:15.072Z,92094.06
2019-04-07T13:24:57.011Z,92094.38
2019-04-07T13:27:41.543Z,92098.09
2019-04-07T13:30:22.522Z,92099.31
2019-04-07T13:33:11.345Z,92106.80
2019-04-07T13:35:57.526Z,92101.96
2019-04-07T13:38:43.049Z,92104.83
2019-04-07T13:41:17.755Z,92108.34
2019-04-07T13:43:54.773Z,92102.41
2019-04-07T13:46:31.777Z,92110.36
2019-04-07T13:49:02.817Z,92110.80
2019-04-07T13:51:33.101Z,92109.38
2019-04-07T13:54:21.200Z,92113.12
2019-04-07T13:56:54.776Z,92115.36
2019-04-07T13:59:39.299Z,92116.91
2019-04-07T14:02:29.610Z,92115.16
2019-04-07T14:05:15.559Z,92115.62
2019-04-07T14:08:01.337Z,92119.59
2019-04-07T14:10:40.471Z,92120.91
2019-04-07T14:13:10.501Z,92119.99
2019-04-07T14:15:40.937Z,92127.98
2019-04-07T14:18:20.171Z,92131.05
2019-04-07T14:20:56.224Z,92140.80
2019-04-07T14:23:31.643Z,92133.20
2019-04-07T14:26:02.340Z,92142.73
2019-04-07T14:28:38.988Z,92140.05
2019-04-07T14:31:15.268Z,92138.66
2019-04-07T14:33:45.919Z,92140.45
2019-04-07T14:36:22.711Z,92138.62
2019-04-07T14:39:05.269Z,92131.19
2019-04-07T14:41:35.692Z,92134.71
2019-04-07T14:44:22.550Z,92132.44
2019-04-07T14:47:00.077Z,92132.54
2019-04-07T14:49:33.326Z,92142.44
2019-04-07T14:52:06.725Z,92141.64
2019-04-07T14:54:46.454Z,92148.38
2019-04-07T14:57:16.962Z,92143.52
2019-04-07T14:59:56.322Z,92149.23
2019-04-07T15:02:24.835Z,92149.69
2019-04-07T15:04:55.087Z,92157.91
2019-04-07T15:07:32.452Z,92145.83
2019-04-07T15:10:03.216Z,92159.66
2019-04-07T15:12:33.881Z,92163.44
2019-04-07T15:15:08.443Z,92160.88
2019-04-07T15:17:32.945Z,92166.71
2019-04-07T15:20:01.491Z,92169.58
2019-04-07T15:22:31.075Z,92169.55
2019-04-07T15:25:00.165Z,92166.15
2019-04-07T15:27:28.660Z,92174.62
2019-04-07T15:29:57.748Z,92168.08
2019-04-07T15:32:28.611Z,92173.04
2019-04-07T15:34:56.165Z,92182.67
2019-04-07T15:37:25.112Z,92187.20
2019-04-07T15:39:53.399Z,92184.16
2019-04-07T15:42:33.915Z,92187.30
2019-04-07T15:44:52.009Z,92192.40
2019-04-07T15:47:21.901Z,92189.44
2019-04-07T15:49:51.337Z,92182.82
2019-04-07T15:52:20.653Z,92185.88
2019-04-07T15:54:49.042Z,92187.48
2019-04-07T15:57:20.209Z,92190.91
2019-04-07T15:59:48.077Z,92187.44
2019-04-07T16:02:17.221Z,92184.27
2019-04-07T16:04:45.596Z,92185.34
2019-04-07T16:07:14.590Z,92190.25
2019-04-07T16:09:50.805Z,92193.89
2019-04-07T16:12:13.447Z,92190.92
2019-04-07T16:14:44.266Z,92191.83
2019-04-07T16:17:12.127Z,92194.22
2019-04-07T16:19:44.066Z,92197.10
2019-04-07T16:22:12.494Z,92201.13
2019-04-07T16:24:41.586Z,92201.92
2019-04-07T16:27:10.890Z,92211.02
2019-04-07T16:29:39.816Z,92214.92
2019-04-07T16:32:08.228Z,92214.48
2019-04-07T16:34:38.797Z,92222.93
2019-04-07T16:37:06.508Z,92224.44
2019-04-07T16:39:35.016Z,92220.78
2019-04-07T16:42:03.272Z,92223.28
2019-04-07T16:44:31.881Z,92222.66
2019-04-07T16:47:03.732Z,92224.65
2019-04-07T16:49:30.430Z,92236.75
2019-04-07T16:52:01.926Z,92243.60
2019-04-07T16:54:29.074Z,92240.59
2019-04-07T16:56:58.396Z,92243.56
2019-04-07T16:59:27.540Z,92244.66
2019-04-07T17:01:55.927Z,92248.45
2019-04-07T17:04:28.147Z,92247.50
2019-04-07T17:07:02.383Z,92249.79
2019-04-07T17:09:28.229Z,92249.27
2019-04-07T17:11:56.727Z,92253.52
2019-04-07T17:14:25.766Z,92264.21
2019-04-07T17:16:55.821Z,92262.35
2019-04-07T17:19:26.643Z,92271.94
2019-04-07T17:21:55.510Z,92275.83
2019-04-07T17:24:27.204Z,92280.13
2019-04-07T17:26:54.135Z,92280.11
2019-04-07T17:29:23.521Z,92293.80
2019-04-07T17:31:52.179Z,92300.25
2019-04-07T17:34:20.574Z,92305.86
2019-04-07T17:36:53.098Z,92309.34
2019-04-07T17:39:26.191Z,92311.27
2019-04-07T17:41:56.072Z,92311.73
2019-04-07T17:44:35.136Z,92316.96
2019-04-07T17:47:21.236Z,92318.28
2019-04-07T17:49:51.160Z,92318.52
2019-04-07T17:52:26.512Z,92318.14
2019-04-07T17:55:12.759Z,92328.67
2019-04-07T17:57:52.071Z,92331.98
2019-04-07T18:00:38.378Z,92332.38
2019-04-07T18:03:11.632Z,92331.47
2019-04-07T18:05:50.880Z,92335.06
2019-04-07T18:08:29.460Z,92335.95
2019-04-07T18:11:00.732Z,92344.17
2019-04-07T18:13:50.194Z,92348.59
2019-04-07T18:16:24.841Z,92354.66
2019-04-07T18:19:14.145Z,92349.31
2019-04-07T18:22:02.444Z,92352.33
2019-04-07T18:24:32.404Z,92349.63
2019-04-07T18:27:15.914Z,92351.45
2019-04-07T18:30:04.067Z,92358.79
2019-04-07T18:32:37.402Z,92361.92
2019-04-07T18:35:08.431Z,92362.41
2019-04-07T18:37:42.173Z,92371.72
2019-04-07T18:40:29.519Z,92370.45
2019-04-07T18:43:16.625Z,92368.23
2019-04-07T18:46:01.870Z,92382.86
2019-04-07T18:48:47.805Z,92388.10
2019-04-07T18:51:23.683Z,92395.36
2019-04-07T18:53:58.475Z,92399.53
2019-04-07T18:56:44.017Z,92406.91
2019-04-07T18:59:31.275Z,92408.52
2019-04-07T19:02:01.397Z,92415.31
2019-04-07T19:04:47.824Z,92419.88
2019-04-07T19:07:21.295Z,92431.42
2019-04-07T19:10:05.102Z,92424.41
2019-04-07T19:12:35.043Z,92418.33
2019-04-07T19:15:14.427Z,92413.47
2019-04-07T19:17:47.120Z,92415.49
2019-04-07T19:20:26.911Z,92419.47
2019-04-07T19:23:02.393Z,92429.24
2019-04-07T19:25:35.634Z,92433.63
2019-04-07T19:28:11.414Z,92439.80
2019-04-07T19:30:59.154Z,92440.80
2019-04-07T19:33:45.393Z,92440.32
2019-04-07T19:36:24.045Z,92451.84
2019-04-07T19:42:04.588Z,92454.13
2019-04-07T19:44:42.482Z,92456.98
2019-04-07T19:47:11.971Z,92455.70
2019-04-07T19:49:47.632Z,92453.56
2019-04-07T19:52:21.633Z,92445.23
2019-04-07T19:55:06.663Z,92458.25
2019-04-07T19:57:42.742Z,92458.18
2019-04-07T20:00:30.731Z,92455.94
2019-04-07T20:03:08.780Z,92453.02
2019-04-07T20:05:48.794Z,92451.59
2019-04-07T20:08:20.283Z,92461.75
2019-04-07T20:10:54.893Z,92453.80
2019-04-07T20:13:34.433Z,92456.18
2019-04-07T20:16:08.193Z,92460.30
2019-04-07T20:18:39.823Z,92456.52
2019-04-07T20:21:19.826Z,92455.45
2019-04-07T20:23:52.878Z,92459.25
2019-04-07T20:26:22.894Z,92462.45
2019-04-07T20:29:05.187Z,92463.86
2019-04-07T20:31:39.011Z,92466.95
2019-04-07T20:34:09.784Z,92464.82
2019-04-07T20:36:55.995Z,92469.70
2019-04-07T20:39:29.487Z,92470.86
2019-04-07T20:41:57.552Z,92469.71
2019-04-07T20:44:36.621Z,92481.72
2019-04-07T20:47:23.042Z,92481.23
2019-04-07T20:50:10.728Z,92480.98
2019-04-07T20:53:08.423Z,92479.47
2019-04-07T20:55:41.342Z,92478.41
2019-04-07T20:58:23.790Z,92486.22
2019-04-07T21:00:58.549Z,92483.12
2019-04-07T21:03:40.426Z,92482.73
2019-04-07T21:06:30.187Z,92484.61
2019-04-07T21:09:17.358Z,92487.08
2019-04-07T21:11:50.096Z,92490.53
2019-04-07T21:14:20.813Z,92490.75
2019-04-07T21:17:03.877Z,92497.19
2019-04-07T21:19:49.674Z,92494.16
2019-04-07T21:22:29.859Z,92491.63
2019-04-07T21:25:05.641Z,92495.27
2019-04-07T21:27:37.146Z,92481.73
2019-04-07T21:30:27.274Z,92485.32
2019-04-07T21:32:57.201Z,92481.06
2019-04-07T21:35:35.088Z,92480.27
2019-04-07T21:38:04.454Z,92477.72
2019-04-07T21:40:42.302Z,92477.74
2019-04-07T21:43:29.452Z,92482.39
2019-04-07T21:46:05.157Z,92478.66
2019-04-07T21:48:37.528Z,92472.67
2019-04-07T21:51:15.544Z,92484.22
2019-04-07T21:53:45.478Z,92489.05
2019-04-07T21:56:15.717Z,92484.16
2019-04-07T21:59:01.191Z,92478.20
2019-04-07T22:01:46.311Z,92482.84
2019-04-07T22:04:18.866Z,92488.31
2019-04-07T22:06:48.604Z,92500.59
2019-04-07T22:09:24.715Z,92510.28
2019-04-07T22:11:54.684Z,92506.63
2019-04-07T22:14:23.645Z,92505.30
2019-04-07T22:16:51.905Z,92502.61
2019-04-07T22:19:20.308Z,92516.33
2019-04-07T22:21:52.968Z,92508.64
2019-04-07T22:24:18.867Z,92511.74
2019-04-07T22:26:49.901Z,92511.72
2019-04-07T22:29:18.209Z,92512.46
2019-04-07T22:31:48.158Z,92517.72
2019-04-07T22:34:16.591Z,92521.63
2019-04-07T22:36:47.534Z,92529.23
2019-04-07T22:39:14.856Z,92529.47
2019-04-07T22:41:44.210Z,92526.70
2019-04-07T22:44:13.350Z,92537.39
2019-04-07T22:46:41.700Z,92542.19
2019-04-07T22:49:09.941Z,92545.91
2019-04-07T22:51:38.233Z,92546.48
2019-04-07T22:54:06.492Z,92537.47
2019-04-07T22:56:38.128Z,92535.20
2019-04-07T22:59:05.725Z,92537.66
2019-04-07T23:01:34.286Z,92538.73
2019-04-07T23:04:03.475Z,92545.86
2019-04-07T23:06:31.906Z,92546.67
2019-04-07T23:09:00.162Z,92542.07
2019-04-07T23:11:28.459Z,92546.87
2019-04-07T23:13:57.649Z,92546.60
2019-04-07T23:16:25.927Z,92550.78
2019-04-07T23:18:54.235Z,92547.19
2019-04-07T23:21:23.412Z,92549.03
2019-04-07T23:23:51.703Z,92549.30
2019-04-07T23:26:20.216Z,92554.81
2019-04-07T23:28:48.611Z,92559.55
2019-04-07T23:31:17.261Z,92558.53
2019-04-07T23:33:45.927Z,92550.48
2019-04-07T23:36:14.173Z,92561.16
2019-04-07T23:38:42.446Z,92560.42
2019-04-07T23:41:11.652Z,92564.63
2019-04-07T23:43:39.698Z,92562.88
2019-04-07T23:46:19.593Z,92564.95
2019-04-07T23:48:38.192Z,92566.07
2019-04-07T23:51:06.463Z,92561.16
2019-04-07T23:54:11.807Z,92564.31
2019-04-07T23:56:41.543Z,92563.51
2019-04-07T23:59:10.357Z,92567.78
